sensor_id;sensor_type;location;lat;lon;timestamp;temperature;humidity
12847;DHT22;6492;48.128;8.320;2023-04-21T00:02:09;0.20;77.50
12847;DHT22;6492;48.128;8.320;2023-04-21T00:06:15;0.30;77.80
12847;DHT22;6492;48.128;8.320;2023-04-21T00:10:21;0.40;77.90
12847;DHT22;6492;48.128;8.320;2023-04-21T00:14:25;0.40;77.90
12847;DHT22;6492;48.128;8.320;2023-04-21T00:18:26;0.40;78.00
12847;DHT22;6492;48.128;8.320;2023-04-21T00:22:28;0.40;77.90
12847;DHT22;6492;48.128;8.320;2023-04-21T00:26:30;0.30;77.80
12847;DHT22;6492;48.128;8.320;2023-04-21T00:30:33;0.30;77.90
12847;DHT22;6492;48.128;8.320;2023-04-21T00:34:35;0.20;77.80
12847;DHT22;6492;48.128;8.320;2023-04-21T00:38:37;0.20;77.80
12847;DHT22;6492;48.128;8.320;2023-04-21T00:42:38;0.20;77.70
12847;DHT22;6492;48.128;8.320;2023-04-21T00:46:42;0.10;77.70
12847;DHT22;6492;48.128;8.320;2023-04-21T00:50:44;0.20;77.80
12847;DHT22;6492;48.128;8.320;2023-04-21T00:54:46;0.20;77.80
12847;DHT22;6492;48.128;8.320;2023-04-21T00:58:48;0.20;77.90
12847;DHT22;6492;48.128;8.320;2023-04-21T01:03:25;0.20;77.90
12847;DHT22;6492;48.128;8.320;2023-04-21T01:07:27;0.30;78.10
12847;DHT22;6492;48.128;8.320;2023-04-21T01:11:29;0.40;78.20
12847;DHT22;6492;48.128;8.320;2023-04-21T01:15:31;0.40;78.30
12847;DHT22;6492;48.128;8.320;2023-04-21T01:19:36;0.50;78.40
12847;DHT22;6492;48.128;8.320;2023-04-21T01:23:40;0.50;78.40
12847;DHT22;6492;48.128;8.320;2023-04-21T01:27:42;0.50;78.40
12847;DHT22;6492;48.128;8.320;2023-04-21T01:31:43;0.50;78.40
12847;DHT22;6492;48.128;8.320;2023-04-21T01:35:59;0.50;78.40
12847;DHT22;6492;48.128;8.320;2023-04-21T01:40:05;0.40;78.30
12847;DHT22;6492;48.128;8.320;2023-04-21T01:44:08;0.40;78.30
12847;DHT22;6492;48.128;8.320;2023-04-21T01:48:10;0.20;78.10
12847;DHT22;6492;48.128;8.320;2023-04-21T01:52:12;0.10;78.90
12847;DHT22;6492;48.128;8.320;2023-04-21T01:56:15;-0.10;77.80
12847;DHT22;6492;48.128;8.320;2023-04-21T02:00:18;-0.20;77.60
12847;DHT22;6492;48.128;8.320;2023-04-21T02:04:20;-0.40;77.40
12847;DHT22;6492;48.128;8.320;2023-04-21T02:08:21;-0.50;77.30
12847;DHT22;6492;48.128;8.320;2023-04-21T02:12:25;-0.60;77.20
12847;DHT22;6492;48.128;8.320;2023-04-21T02:16:27;-0.60;77.20
12847;DHT22;6492;48.128;8.320;2023-04-21T02:20:28;-0.70;77.30
12847;DHT22;6492;48.128;8.320;2023-04-21T02:24:30;-0.80;77.00
12847;DHT22;6492;48.128;8.320;2023-04-21T02:28:33;-0.80;77.20
12847;DHT22;6492;48.128;8.320;2023-04-21T02:32:35;-0.80;77.20
12847;DHT22;6492;48.128;8.320;2023-04-21T02:36:37;-0.90;77.20
12847;DHT22;6492;48.128;8.320;2023-04-21T02:40:39;-0.90;77.10
12847;DHT22;6492;48.128;8.320;2023-04-21T02:44:43;-0.90;77.10
12847;DHT22;6492;48.128;8.320;2023-04-21T02:48:45;-0.80;77.30
12847;DHT22;6492;48.128;8.320;2023-04-21T02:52:46;-0.70;77.50
12847;DHT22;6492;48.128;8.320;2023-04-21T02:56:48;-0.70;77.50
12847;DHT22;6492;48.128;8.320;2023-04-21T03:00:51;-0.80;77.40
12847;DHT22;6492;48.128;8.320;2023-04-21T03:04:53;-0.90;77.30
12847;DHT22;6492;48.128;8.320;2023-04-21T03:08:55;-0.80;77.30
12847;DHT22;6492;48.128;8.320;2023-04-21T03:12:57;-0.80;77.30
12847;DHT22;6492;48.128;8.320;2023-04-21T03:17:00;-0.80;77.40
12847;DHT22;6492;48.128;8.320;2023-04-21T03:21:02;-0.90;77.40
12847;DHT22;6492;48.128;8.320;2023-04-21T03:25:04;-1.00;77.20
12847;DHT22;6492;48.128;8.320;2023-04-21T03:29:06;-0.90;78.10
12847;DHT22;6492;48.128;8.320;2023-04-21T03:33:09;-0.90;77.40
12847;DHT22;6492;48.128;8.320;2023-04-21T03:37:11;-1.10;77.20
12847;DHT22;6492;48.128;8.320;2023-04-21T03:41:13;-1.10;77.20
12847;DHT22;6492;48.128;8.320;2023-04-21T03:45:15;-1.10;77.20
12847;DHT22;6492;48.128;8.320;2023-04-21T03:49:28;-1.20;77.10
12847;DHT22;6492;48.128;8.320;2023-04-21T03:53:29;-1.10;77.10
12847;DHT22;6492;48.128;8.320;2023-04-21T03:57:31;-1.00;77.20
12847;DHT22;6492;48.128;8.320;2023-04-21T04:01:33;-0.90;77.40
12847;DHT22;6492;48.128;8.320;2023-04-21T04:05:37;-0.90;77.40
12847;DHT22;6492;48.128;8.320;2023-04-21T04:09:39;-0.90;77.40
12847;DHT22;6492;48.128;8.320;2023-04-21T04:13:40;-0.80;77.40
12847;DHT22;6492;48.128;8.320;2023-04-21T04:17:42;-0.90;77.40
12847;DHT22;6492;48.128;8.320;2023-04-21T04:21:45;-0.80;77.30
12847;DHT22;6492;48.128;8.320;2023-04-21T04:25:47;-0.70;77.40
12847;DHT22;6492;48.128;8.320;2023-04-21T04:29:49;-0.70;77.50
12847;DHT22;6492;48.128;8.320;2023-04-21T04:33:52;-0.70;77.50
12847;DHT22;6492;48.128;8.320;2023-04-21T04:37:55;-0.60;77.40
12847;DHT22;6492;48.128;8.320;2023-04-21T04:41:58;-0.50;77.50
12847;DHT22;6492;48.128;8.320;2023-04-21T04:46:00;-0.40;77.60
12847;DHT22;6492;48.128;8.320;2023-04-21T04:50:02;-0.50;77.60
12847;DHT22;6492;48.128;8.320;2023-04-21T04:54:06;-0.50;77.70
12847;DHT22;6492;48.128;8.320;2023-04-21T04:58:07;-0.50;77.60
12847;DHT22;6492;48.128;8.320;2023-04-21T05:02:12;-0.50;77.60
12847;DHT22;6492;48.128;8.320;2023-04-21T05:06:14;-0.50;77.60
12847;DHT22;6492;48.128;8.320;2023-04-21T05:10:17;-0.50;77.60
12847;DHT22;6492;48.128;8.320;2023-04-21T05:14:19;-0.40;77.60
12847;DHT22;6492;48.128;8.320;2023-04-21T05:18:20;-0.40;77.60
12847;DHT22;6492;48.128;8.320;2023-04-21T05:22:23;-0.30;77.70
12847;DHT22;6492;48.128;8.320;2023-04-21T05:26:27;-0.20;77.60
12847;DHT22;6492;48.128;8.320;2023-04-21T05:30:29;-0.20;77.70
12847;DHT22;6492;48.128;8.320;2023-04-21T05:34:31;-0.10;77.80
12847;DHT22;6492;48.128;8.320;2023-04-21T05:38:33;-0.10;77.80
12847;DHT22;6492;48.128;8.320;2023-04-21T05:42:36;-0.10;77.80
12847;DHT22;6492;48.128;8.320;2023-04-21T05:51:31;0.00;77.80
12847;DHT22;6492;48.128;8.320;2023-04-21T05:55:40;0.10;77.80
12847;DHT22;6492;48.128;8.320;2023-04-21T05:59:43;0.20;77.70
12847;DHT22;6492;48.128;8.320;2023-04-21T06:03:47;0.30;77.80
12847;DHT22;6492;48.128;8.320;2023-04-21T06:07:49;0.50;77.80
12847;DHT22;6492;48.128;8.320;2023-04-21T06:11:53;0.70;77.80
12847;DHT22;6492;48.128;8.320;2023-04-21T06:15:57;0.90;77.80
12847;DHT22;6492;48.128;8.320;2023-04-21T06:19:59;1.00;77.80
12847;DHT22;6492;48.128;8.320;2023-04-21T06:24:20;1.20;77.90
12847;DHT22;6492;48.128;8.320;2023-04-21T06:28:25;1.40;77.70
12847;DHT22;6492;48.128;8.320;2023-04-21T06:32:28;1.60;77.80
12847;DHT22;6492;48.128;8.320;2023-04-21T06:36:29;1.90;77.90
12847;DHT22;6492;48.128;8.320;2023-04-21T06:40:33;2.10;78.00
12847;DHT22;6492;48.128;8.320;2023-04-21T06:44:34;2.30;78.00
12847;DHT22;6492;48.128;8.320;2023-04-21T06:48:38;2.50;78.20
12847;DHT22;6492;48.128;8.320;2023-04-21T06:52:40;2.70;78.10
12847;DHT22;6492;48.128;8.320;2023-04-21T06:56:42;2.90;78.20
12847;DHT22;6492;48.128;8.320;2023-04-21T07:00:44;3.10;78.20
12847;DHT22;6492;48.128;8.320;2023-04-21T07:04:47;3.30;78.20
12847;DHT22;6492;48.128;8.320;2023-04-21T07:08:49;3.40;78.10
12847;DHT22;6492;48.128;8.320;2023-04-21T07:12:51;3.60;78.20
12847;DHT22;6492;48.128;8.320;2023-04-21T07:16:52;3.80;78.20
12847;DHT22;6492;48.128;8.320;2023-04-21T07:20:58;3.90;78.20
12847;DHT22;6492;48.128;8.320;2023-04-21T07:24:59;4.10;78.10
12847;DHT22;6492;48.128;8.320;2023-04-21T07:29:01;4.40;77.90
12847;DHT22;6492;48.128;8.320;2023-04-21T07:33:03;4.60;78.00
12847;DHT22;6492;48.128;8.320;2023-04-21T07:37:06;4.70;77.90
12847;DHT22;6492;48.128;8.320;2023-04-21T07:41:08;5.00;77.70
12847;DHT22;6492;48.128;8.320;2023-04-21T07:45:29;5.40;77.40
12847;DHT22;6492;48.128;8.320;2023-04-21T07:49:31;5.80;77.20
12847;DHT22;6492;48.128;8.320;2023-04-21T07:53:35;6.80;77.00
12847;DHT22;6492;48.128;8.320;2023-04-21T07:57:36;8.00;77.00
12847;DHT22;6492;48.128;8.320;2023-04-21T08:01:39;9.20;77.50
12847;DHT22;6492;48.128;8.320;2023-04-21T08:05:41;9.50;79.40
12847;DHT22;6492;48.128;8.320;2023-04-21T08:09:44;9.90;80.10
12847;DHT22;6492;48.128;8.320;2023-04-21T08:13:46;10.80;52.90
12847;DHT22;6492;48.128;8.320;2023-04-21T08:18:05;11.30;30.10
12847;DHT22;6492;48.128;8.320;2023-04-21T08:22:07;12.00;23.30
12847;DHT22;6492;48.128;8.320;2023-04-21T08:26:10;12.70;17.80
12847;DHT22;6492;48.128;8.320;2023-04-21T08:30:13;13.10;15.40
12847;DHT22;6492;48.128;8.320;2023-04-21T08:34:15;13.50;14.80
12847;DHT22;6492;48.128;8.320;2023-04-21T08:38:16;13.50;13.30
12847;DHT22;6492;48.128;8.320;2023-04-21T08:42:20;13.30;12.50
12847;DHT22;6492;48.128;8.320;2023-04-21T08:46:55;13.30;12.00
12847;DHT22;6492;48.128;8.320;2023-04-21T08:51:01;13.20;11.70
12847;DHT22;6492;48.128;8.320;2023-04-21T08:55:04;13.10;12.90
12847;DHT22;6492;48.128;8.320;2023-04-21T08:59:08;13.00;10.20
12847;DHT22;6492;48.128;8.320;2023-04-21T09:03:10;13.00;10.30
12847;DHT22;6492;48.128;8.320;2023-04-21T09:07:28;13.00;11.40
12847;DHT22;6492;48.128;8.320;2023-04-21T09:11:32;13.10;11.50
12847;DHT22;6492;48.128;8.320;2023-04-21T09:15:38;13.40;11.80
12847;DHT22;6492;48.128;8.320;2023-04-21T09:20:18;13.60;10.60
12847;DHT22;6492;48.128;8.320;2023-04-21T09:24:29;14.00;11.20
12847;DHT22;6492;48.128;8.320;2023-04-21T09:28:31;14.20;9.70
12847;DHT22;6492;48.128;8.320;2023-04-21T09:32:37;14.30;9.10
12847;DHT22;6492;48.128;8.320;2023-04-21T09:36:39;14.30;7.80
12847;DHT22;6492;48.128;8.320;2023-04-21T09:40:40;14.40;7.80
12847;DHT22;6492;48.128;8.320;2023-04-21T09:44:42;14.70;8.00
12847;DHT22;6492;48.128;8.320;2023-04-21T09:48:46;15.00;7.20
12847;DHT22;6492;48.128;8.320;2023-04-21T09:52:50;15.10;7.40
12847;DHT22;6492;48.128;8.320;2023-04-21T09:56:53;15.30;6.50
12847;DHT22;6492;48.128;8.320;2023-04-21T10:00:57;15.30;5.20
12847;DHT22;6492;48.128;8.320;2023-04-21T10:05:00;15.00;5.70
12847;DHT22;6492;48.128;8.320;2023-04-21T10:09:04;15.20;6.40
12847;DHT22;6492;48.128;8.320;2023-04-21T10:13:12;15.60;7.80
12847;DHT22;6492;48.128;8.320;2023-04-21T10:17:15;15.90;5.20
12847;DHT22;6492;48.128;8.320;2023-04-21T10:21:19;16.10;4.30
12847;DHT22;6492;48.128;8.320;2023-04-21T10:25:21;16.10;2.60
12847;DHT22;6492;48.128;8.320;2023-04-21T10:29:28;16.20;3.40
12847;DHT22;6492;48.128;8.320;2023-04-21T10:33:31;16.40;1.90
12847;DHT22;6492;48.128;8.320;2023-04-21T10:37:34;16.50;3.00
12847;DHT22;6492;48.128;8.320;2023-04-21T10:41:35;16.70;2.00
12847;DHT22;6492;48.128;8.320;2023-04-21T10:45:55;16.80;1.80
12847;DHT22;6492;48.128;8.320;2023-04-21T10:49:57;17.10;1.40
12847;DHT22;6492;48.128;8.320;2023-04-21T10:54:04;17.30;1.00
12847;DHT22;6492;48.128;8.320;2023-04-21T10:58:07;17.40;1.00
12847;DHT22;6492;48.128;8.320;2023-04-21T11:02:11;17.20;1.00
12847;DHT22;6492;48.128;8.320;2023-04-21T11:06:16;17.30;1.00
12847;DHT22;6492;48.128;8.320;2023-04-21T11:10:19;17.50;1.00
12847;DHT22;6492;48.128;8.320;2023-04-21T11:14:21;17.70;1.00
12847;DHT22;6492;48.128;8.320;2023-04-21T11:18:40;17.90;1.00
12847;DHT22;6492;48.128;8.320;2023-04-21T11:22:42;18.10;1.00
12847;DHT22;6492;48.128;8.320;2023-04-21T11:26:49;18.30;1.00
12847;DHT22;6492;48.128;8.320;2023-04-21T11:30:51;18.30;1.00
12847;DHT22;6492;48.128;8.320;2023-04-21T11:34:53;18.20;1.00
12847;DHT22;6492;48.128;8.320;2023-04-21T11:38:55;18.60;1.00
12847;DHT22;6492;48.128;8.320;2023-04-21T11:42:58;19.10;1.00
12847;DHT22;6492;48.128;8.320;2023-04-21T11:47:10;19.40;1.00
12847;DHT22;6492;48.128;8.320;2023-04-21T11:51:16;19.70;1.00
12847;DHT22;6492;48.128;8.320;2023-04-21T11:55:18;20.00;1.00
12847;DHT22;6492;48.128;8.320;2023-04-21T11:59:22;19.80;1.00
12847;DHT22;6492;48.128;8.320;2023-04-21T12:03:25;20.00;1.00
12847;DHT22;6492;48.128;8.320;2023-04-21T12:07:29;20.30;1.00
12847;DHT22;6492;48.128;8.320;2023-04-21T12:11:30;20.40;1.00
12847;DHT22;6492;48.128;8.320;2023-04-21T12:15:33;20.40;1.00
12847;DHT22;6492;48.128;8.320;2023-04-21T12:19:37;20.60;1.00
12847;DHT22;6492;48.128;8.320;2023-04-21T12:23:39;20.70;1.00
12847;DHT22;6492;48.128;8.320;2023-04-21T12:27:47;20.90;1.00
12847;DHT22;6492;48.128;8.320;2023-04-21T12:31:50;20.70;1.00
12847;DHT22;6492;48.128;8.320;2023-04-21T12:36:21;20.80;1.00
12847;DHT22;6492;48.128;8.320;2023-04-21T12:45:03;21.50;1.00
12847;DHT22;6492;48.128;8.320;2023-04-21T12:49:07;20.60;1.00
12847;DHT22;6492;48.128;8.320;2023-04-21T12:58:07;19.50;1.00
12847;DHT22;6492;48.128;8.320;2023-04-21T13:02:09;19.10;1.00
12847;DHT22;6492;48.128;8.320;2023-04-21T13:06:25;18.70;1.00
12847;DHT22;6492;48.128;8.320;2023-04-21T13:10:27;18.50;1.00
12847;DHT22;6492;48.128;8.320;2023-04-21T13:15:03;18.70;1.00
12847;DHT22;6492;48.128;8.320;2023-04-21T13:19:05;19.00;1.00
12847;DHT22;6492;48.128;8.320;2023-04-21T13:27:50;18.70;1.00
12847;DHT22;6492;48.128;8.320;2023-04-21T13:32:09;18.60;1.00
12847;DHT22;6492;48.128;8.320;2023-04-21T13:36:11;18.80;1.00
12847;DHT22;6492;48.128;8.320;2023-04-21T13:40:13;18.70;1.00
12847;DHT22;6492;48.128;8.320;2023-04-21T13:44:16;18.30;1.00
12847;DHT22;6492;48.128;8.320;2023-04-21T13:48:52;18.50;1.00
12847;DHT22;6492;48.128;8.320;2023-04-21T13:52:54;18.80;1.00
12847;DHT22;6492;48.128;8.320;2023-04-21T13:57:00;19.30;1.00
12847;DHT22;6492;48.128;8.320;2023-04-21T14:01:14;19.30;1.00
12847;DHT22;6492;48.128;8.320;2023-04-21T14:05:16;18.80;1.00
12847;DHT22;6492;48.128;8.320;2023-04-21T14:09:24;18.40;1.00
12847;DHT22;6492;48.128;8.320;2023-04-21T14:13:26;18.20;1.00
12847;DHT22;6492;48.128;8.320;2023-04-21T14:17:29;17.90;1.00
12847;DHT22;6492;48.128;8.320;2023-04-21T14:21:33;17.70;1.00
12847;DHT22;6492;48.128;8.320;2023-04-21T14:25:35;17.90;1.00
12847;DHT22;6492;48.128;8.320;2023-04-21T14:34:35;17.80;1.00
12847;DHT22;6492;48.128;8.320;2023-04-21T14:38:48;18.10;1.00
12847;DHT22;6492;48.128;8.320;2023-04-21T14:42:50;18.30;1.00
12847;DHT22;6492;48.128;8.320;2023-04-21T14:47:26;18.00;1.00
12847;DHT22;6492;48.128;8.320;2023-04-21T14:51:29;18.20;1.00
12847;DHT22;6492;48.128;8.320;2023-04-21T14:55:31;18.80;1.00
12847;DHT22;6492;48.128;8.320;2023-04-21T14:59:34;18.60;1.00
12847;DHT22;6492;48.128;8.320;2023-04-21T15:03:41;18.10;1.00
12847;DHT22;6492;48.128;8.320;2023-04-21T15:07:44;17.70;1.00
12847;DHT22;6492;48.128;8.320;2023-04-21T15:11:56;17.20;1.00
12847;DHT22;6492;48.128;8.320;2023-04-21T15:16:05;16.70;1.00
12847;DHT22;6492;48.128;8.320;2023-04-21T15:20:09;16.30;1.00
12847;DHT22;6492;48.128;8.320;2023-04-21T15:24:12;15.80;1.00
12847;DHT22;6492;48.128;8.320;2023-04-21T15:28:15;15.40;1.00
12847;DHT22;6492;48.128;8.320;2023-04-21T15:32:19;15.10;1.00
12847;DHT22;6492;48.128;8.320;2023-04-21T15:36:21;14.60;1.00
12847;DHT22;6492;48.128;8.320;2023-04-21T15:40:24;14.20;1.00
12847;DHT22;6492;48.128;8.320;2023-04-21T15:44:26;14.00;1.00
12847;DHT22;6492;48.128;8.320;2023-04-21T15:48:28;13.80;1.00
12847;DHT22;6492;48.128;8.320;2023-04-21T15:52:31;13.50;1.00
12847;DHT22;6492;48.128;8.320;2023-04-21T15:56:37;13.50;1.00
12847;DHT22;6492;48.128;8.320;2023-04-21T16:00:40;13.40;1.00
12847;DHT22;6492;48.128;8.320;2023-04-21T16:04:43;13.20;1.00
12847;DHT22;6492;48.128;8.320;2023-04-21T16:08:46;13.10;1.00
12847;DHT22;6492;48.128;8.320;2023-04-21T16:12:49;13.00;1.00
12847;DHT22;6492;48.128;8.320;2023-04-21T16:16:51;13.00;1.00
12847;DHT22;6492;48.128;8.320;2023-04-21T16:21:04;13.10;1.00
12847;DHT22;6492;48.128;8.320;2023-04-21T16:25:08;13.30;1.00
12847;DHT22;6492;48.128;8.320;2023-04-21T16:29:40;13.40;1.00
12847;DHT22;6492;48.128;8.320;2023-04-21T16:33:44;13.30;1.00
12847;DHT22;6492;48.128;8.320;2023-04-21T16:37:52;13.30;1.00
12847;DHT22;6492;48.128;8.320;2023-04-21T16:42:13;13.30;1.00
12847;DHT22;6492;48.128;8.320;2023-04-21T16:46:16;13.30;1.00
12847;DHT22;6492;48.128;8.320;2023-04-21T16:50:18;13.20;1.70
12847;DHT22;6492;48.128;8.320;2023-04-21T16:54:20;13.10;1.90
12847;DHT22;6492;48.128;8.320;2023-04-21T16:58:44;12.90;2.40
12847;DHT22;6492;48.128;8.320;2023-04-21T17:02:47;12.70;2.30
12847;DHT22;6492;48.128;8.320;2023-04-21T17:06:51;12.60;3.20
12847;DHT22;6492;48.128;8.320;2023-04-21T17:10:57;12.30;3.30
12847;DHT22;6492;48.128;8.320;2023-04-21T17:15:24;12.20;4.10
12847;DHT22;6492;48.128;8.320;2023-04-21T17:19:27;12.10;4.60
12847;DHT22;6492;48.128;8.320;2023-04-21T17:23:45;11.90;5.30
12847;DHT22;6492;48.128;8.320;2023-04-21T17:27:49;11.80;6.40
12847;DHT22;6492;48.128;8.320;2023-04-21T17:32:00;11.70;6.40
12847;DHT22;6492;48.128;8.320;2023-04-21T17:36:32;11.60;6.20
12847;DHT22;6492;48.128;8.320;2023-04-21T17:45:30;11.30;6.70
12847;DHT22;6492;48.128;8.320;2023-04-21T17:49:43;11.20;7.50
12847;DHT22;6492;48.128;8.320;2023-04-21T17:53:48;11.10;7.50
12847;DHT22;6492;48.128;8.320;2023-04-21T17:57:50;11.00;8.80
12847;DHT22;6492;48.128;8.320;2023-04-21T18:02:12;10.80;8.20
12847;DHT22;6492;48.128;8.320;2023-04-21T18:06:14;10.70;8.70
12847;DHT22;6492;48.128;8.320;2023-04-21T18:10:27;10.60;9.60
12847;DHT22;6492;48.128;8.320;2023-04-21T18:14:41;10.40;9.90
12847;DHT22;6492;48.128;8.320;2023-04-21T18:18:43;10.70;10.90
12847;DHT22;6492;48.128;8.320;2023-04-21T18:22:47;10.30;11.90
12847;DHT22;6492;48.128;8.320;2023-04-21T18:26:50;10.10;12.90
12847;DHT22;6492;48.128;8.320;2023-04-21T18:30:52;10.00;13.40
12847;DHT22;6492;48.128;8.320;2023-04-21T18:34:54;10.00;13.70
12847;DHT22;6492;48.128;8.320;2023-04-21T18:38:55;9.90;13.70
12847;DHT22;6492;48.128;8.320;2023-04-21T18:42:59;9.80;14.70
12847;DHT22;6492;48.128;8.320;2023-04-21T18:47:01;9.70;14.90
12847;DHT22;6492;48.128;8.320;2023-04-21T18:51:03;9.60;15.90
12847;DHT22;6492;48.128;8.320;2023-04-21T18:55:17;9.50;16.50
12847;DHT22;6492;48.128;8.320;2023-04-21T18:59:22;9.50;16.60
12847;DHT22;6492;48.128;8.320;2023-04-21T19:03:33;9.50;16.10
12847;DHT22;6492;48.128;8.320;2023-04-21T19:07:34;9.50;15.00
12847;DHT22;6492;48.128;8.320;2023-04-21T19:11:36;9.50;15.30
12847;DHT22;6492;48.128;8.320;2023-04-21T19:15:40;9.40;15.90
12847;DHT22;6492;48.128;8.320;2023-04-21T19:19:42;9.30;16.70
12847;DHT22;6492;48.128;8.320;2023-04-21T19:23:44;9.20;17.00
12847;DHT22;6492;48.128;8.320;2023-04-21T19:27:47;9.10;19.00
12847;DHT22;6492;48.128;8.320;2023-04-21T19:31:50;9.00;19.40
12847;DHT22;6492;48.128;8.320;2023-04-21T19:35:54;8.90;20.70
12847;DHT22;6492;48.128;8.320;2023-04-21T19:39:56;8.80;20.90
12847;DHT22;6492;48.128;8.320;2023-04-21T19:43:58;8.80;20.60
12847;DHT22;6492;48.128;8.320;2023-04-21T19:48:03;8.70;18.10
12847;DHT22;6492;48.128;8.320;2023-04-21T19:52:06;8.70;19.00
12847;DHT22;6492;48.128;8.320;2023-04-21T19:56:15;8.70;19.10
12847;DHT22;6492;48.128;8.320;2023-04-21T20:00:17;8.60;19.80
12847;DHT22;6492;48.128;8.320;2023-04-21T20:09:03;8.50;20.60
12847;DHT22;6492;48.128;8.320;2023-04-21T20:13:10;8.40;21.70
12847;DHT22;6492;48.128;8.320;2023-04-21T20:17:12;8.30;22.00
12847;DHT22;6492;48.128;8.320;2023-04-21T20:21:14;8.30;22.10
12847;DHT22;6492;48.128;8.320;2023-04-21T20:25:17;8.20;22.10
12847;DHT22;6492;48.128;8.320;2023-04-21T20:29:30;8.20;20.10
12847;DHT22;6492;48.128;8.320;2023-04-21T20:33:32;8.20;20.40
12847;DHT22;6492;48.128;8.320;2023-04-21T20:37:47;8.20;20.30
12847;DHT22;6492;48.128;8.320;2023-04-21T20:41:51;8.10;21.10
12847;DHT22;6492;48.128;8.320;2023-04-21T20:45:52;8.10;21.50
12847;DHT22;6492;48.128;8.320;2023-04-21T20:49:54;8.10;21.70
12847;DHT22;6492;48.128;8.320;2023-04-21T20:54:05;8.10;21.50
12847;DHT22;6492;48.128;8.320;2023-04-21T20:58:08;8.00;22.30
12847;DHT22;6492;48.128;8.320;2023-04-21T21:02:10;8.00;22.80
12847;DHT22;6492;48.128;8.320;2023-04-21T21:06:12;7.90;24.50
12847;DHT22;6492;48.128;8.320;2023-04-21T21:10:14;7.90;24.10
12847;DHT22;6492;48.128;8.320;2023-04-21T21:14:17;7.80;25.00
12847;DHT22;6492;48.128;8.320;2023-04-21T21:18:18;7.70;25.50
12847;DHT22;6492;48.128;8.320;2023-04-21T21:22:20;7.70;25.10
12847;DHT22;6492;48.128;8.320;2023-04-21T21:26:22;7.60;24.80
12847;DHT22;6492;48.128;8.320;2023-04-21T21:30:26;7.50;25.90
12847;DHT22;6492;48.128;8.320;2023-04-21T21:34:27;7.40;27.40
12847;DHT22;6492;48.128;8.320;2023-04-21T21:38:29;7.30;29.10
12847;DHT22;6492;48.128;8.320;2023-04-21T21:42:31;7.30;29.40
12847;DHT22;6492;48.128;8.320;2023-04-21T21:46:34;7.30;25.30
12847;DHT22;6492;48.128;8.320;2023-04-21T21:50:50;7.40;23.90
12847;DHT22;6492;48.128;8.320;2023-04-21T21:54:52;7.50;22.60
12847;DHT22;6492;48.128;8.320;2023-04-21T21:58:54;7.50;22.60
12847;DHT22;6492;48.128;8.320;2023-04-21T22:02:57;7.60;22.90
12847;DHT22;6492;48.128;8.320;2023-04-21T22:06:59;7.60;22.40
12847;DHT22;6492;48.128;8.320;2023-04-21T22:11:01;7.60;21.50
12847;DHT22;6492;48.128;8.320;2023-04-21T22:15:06;7.70;21.00
12847;DHT22;6492;48.128;8.320;2023-04-21T22:19:13;7.60;24.00
12847;DHT22;6492;48.128;8.320;2023-04-21T22:23:17;7.50;22.90
12847;DHT22;6492;48.128;8.320;2023-04-21T22:27:20;7.50;22.20
12847;DHT22;6492;48.128;8.320;2023-04-21T22:31:22;7.50;21.20
12847;DHT22;6492;48.128;8.320;2023-04-21T22:35:25;7.60;20.60
12847;DHT22;6492;48.128;8.320;2023-04-21T22:39:27;7.60;21.00
12847;DHT22;6492;48.128;8.320;2023-04-21T22:43:29;7.50;21.00
12847;DHT22;6492;48.128;8.320;2023-04-21T22:47:31;7.50;21.40
12847;DHT22;6492;48.128;8.320;2023-04-21T22:51:35;7.50;21.30
12847;DHT22;6492;48.128;8.320;2023-04-21T22:55:37;7.50;21.10
12847;DHT22;6492;48.128;8.320;2023-04-21T22:59:39;7.50;21.30
12847;DHT22;6492;48.128;8.320;2023-04-21T23:03:41;7.40;21.70
12847;DHT22;6492;48.128;8.320;2023-04-21T23:07:44;7.30;21.70
12847;DHT22;6492;48.128;8.320;2023-04-21T23:11:46;7.30;22.70
12847;DHT22;6492;48.128;8.320;2023-04-21T23:15:48;7.30;23.80
12847;DHT22;6492;48.128;8.320;2023-04-21T23:19:50;7.30;22.20
12847;DHT22;6492;48.128;8.320;2023-04-21T23:23:53;7.40;21.70
12847;DHT22;6492;48.128;8.320;2023-04-21T23:27:54;7.40;22.00
12847;DHT22;6492;48.128;8.320;2023-04-21T23:31:56;7.40;22.60
12847;DHT22;6492;48.128;8.320;2023-04-21T23:35:58;7.40;23.40
12847;DHT22;6492;48.128;8.320;2023-04-21T23:40:02;7.40;22.00
12847;DHT22;6492;48.128;8.320;2023-04-21T23:44:08;7.30;22.20
12847;DHT22;6492;48.128;8.320;2023-04-21T23:48:10;7.30;22.00
12847;DHT22;6492;48.128;8.320;2023-04-21T23:52:12;7.40;22.50
12847;DHT22;6492;48.128;8.320;2023-04-21T23:56:15;7.40;22.00
